createdAt,value
2018-06-25T00:00:19.769Z,101396.95
2018-06-25T00:02:46.445Z,101394.92
2018-06-25T00:05:13.665Z,101397.42
2018-06-25T00:07:40.340Z,101397.92
2018-06-25T00:10:07.125Z,101395.86
2018-06-25T00:12:33.835Z,101392.02
2018-06-25T00:15:00.509Z,101395.63
2018-06-25T00:17:27.213Z,101391.02
2018-06-25T00:19:53.898Z,101391.05
2018-06-25T00:22:20.586Z,101393.58
2018-06-25T00:24:47.260Z,101397.32
2018-06-25T00:27:13.952Z,101401.06
2018-06-25T00:29:40.657Z,101395.51
2018-06-25T00:32:07.360Z,101399.14
2018-06-25T00:34:34.060Z,101394.33
2018-06-25T00:37:00.741Z,101387.44
2018-06-25T00:39:27.401Z,101396.48
2018-06-25T00:41:54.066Z,101391.53
2018-06-25T00:44:20.724Z,101395.64
2018-06-25T00:46:47.394Z,101387.69
2018-06-25T00:49:14.089Z,101393.70
2018-06-25T00:51:40.752Z,101394.80
2018-06-25T00:54:07.457Z,101385.87
2018-06-25T00:56:34.112Z,101388.39
2018-06-25T00:59:06.433Z,101382.63
2018-06-25T01:01:33.076Z,101380.70
2018-06-25T01:04:00.673Z,101384.91
2018-06-25T01:06:27.366Z,101380.95
2018-06-25T01:08:54.027Z,101387.47
2018-06-25T01:11:20.779Z,101389.27
2018-06-25T01:13:48.401Z,101392.27
2018-06-25T01:16:15.056Z,101397.44
2018-06-25T01:18:44.074Z,101394.08
2018-06-25T01:21:12.538Z,101395.77
2018-06-25T01:23:39.189Z,101400.36
2018-06-25T01:26:06.846Z,101399.03
2018-06-25T01:28:33.613Z,101406.50
2018-06-25T01:31:00.265Z,101400.59
2018-06-25T01:33:27.744Z,101390.10
2018-06-25T01:35:55.372Z,101383.47
2018-06-25T01:38:22.956Z,101381.32
2018-06-25T01:40:50.537Z,101383.84
2018-06-25T01:43:17.188Z,101381.30
2018-06-25T01:45:44.769Z,101390.09
2018-06-25T01:48:13.301Z,101385.77
2018-06-25T01:50:40.853Z,101388.64
2018-06-25T01:53:08.423Z,101386.96
2018-06-25T01:55:36.042Z,101387.45
2018-06-25T01:58:02.709Z,101390.81
2018-06-25T02:00:29.356Z,101387.22
2018-06-25T02:02:57.006Z,101392.89
2018-06-25T02:05:24.612Z,101396.27
2018-06-25T02:07:51.333Z,101397.35
2018-06-25T02:10:17.988Z,101393.48
2018-06-25T02:12:44.696Z,101392.38
2018-06-25T02:15:12.297Z,101401.20
2018-06-25T02:17:38.947Z,101395.05
2018-06-25T02:20:05.973Z,101398.77
2018-06-25T02:22:32.693Z,101402.29
2018-06-25T02:25:00.120Z,101392.27
2018-06-25T02:27:26.777Z,101396.73
2018-06-25T02:29:53.449Z,101401.05
2018-06-25T02:32:20.084Z,101405.17
2018-06-25T02:34:47.621Z,101400.84
2018-06-25T02:37:14.276Z,101404.44
2018-06-25T02:39:40.993Z,101406.63
2018-06-25T02:42:07.643Z,101405.53
2018-06-25T02:44:34.341Z,101410.13
2018-06-25T02:47:01.027Z,101407.48
2018-06-25T02:49:27.697Z,101408.67
2018-06-25T02:51:54.434Z,101407.45
2018-06-25T02:54:21.096Z,101411.07
2018-06-25T02:56:47.796Z,101402.89
2018-06-25T02:59:14.603Z,101411.70
2018-06-25T03:01:42.184Z,101416.03
2018-06-25T03:04:08.848Z,101412.41
2018-06-25T03:06:35.503Z,101408.80
2018-06-25T03:09:02.189Z,101417.95
2018-06-25T03:11:28.866Z,101417.25
2018-06-25T03:13:55.502Z,101418.92
2018-06-25T03:16:22.629Z,101414.59
2018-06-25T03:18:49.324Z,101413.86
2018-06-25T03:21:15.987Z,101415.80
2018-06-25T03:23:42.736Z,101416.37
2018-06-25T03:26:09.453Z,101420.48
2018-06-25T03:28:36.100Z,101421.81
2018-06-25T03:31:02.735Z,101427.60
2018-06-25T03:33:29.409Z,101427.37
2018-06-25T03:35:56.909Z,101426.28
2018-06-25T03:38:24.419Z,101426.41
2018-06-25T03:40:51.105Z,101437.02
2018-06-25T03:43:17.794Z,101439.28
2018-06-25T03:45:45.390Z,101445.33
2018-06-25T03:48:14.496Z,101442.32
2018-06-25T03:50:41.148Z,101443.75
2018-06-25T03:53:10.365Z,101444.00
2018-06-25T03:55:37.045Z,101449.19
2018-06-25T03:58:03.840Z,101456.17
2018-06-25T04:00:31.293Z,101459.08
2018-06-25T04:02:57.929Z,101459.91
2018-06-25T04:05:24.566Z,101458.59
2018-06-25T04:07:51.218Z,101460.89
2018-06-25T04:10:18.846Z,101465.44
2018-06-25T04:12:46.537Z,101470.39
2018-06-25T04:15:14.144Z,101482.23
2018-06-25T04:17:40.792Z,101483.88
2018-06-25T04:20:07.454Z,101484.37
2018-06-25T04:22:34.919Z,101486.66
2018-06-25T04:25:01.604Z,101486.08
2018-06-25T04:27:28.276Z,101487.86
2018-06-25T04:29:54.929Z,101499.57
2018-06-25T04:32:21.597Z,101494.04
2018-06-25T04:34:48.245Z,101499.57
2018-06-25T04:37:14.908Z,101497.05
2018-06-25T04:39:42.579Z,101501.37
2018-06-25T04:42:09.216Z,101492.94
2018-06-25T04:44:35.870Z,101493.19
2018-06-25T04:47:03.434Z,101492.70
2018-06-25T04:49:30.086Z,101487.41
2018-06-25T04:51:56.733Z,101484.14
2018-06-25T04:54:23.374Z,101494.88
2018-06-25T04:56:50.045Z,101494.16
2018-06-25T04:59:17.648Z,101503.80
2018-06-25T05:01:44.364Z,101508.85
2018-06-25T05:04:11.052Z,101513.31
2018-06-25T05:06:38.532Z,101515.97
2018-06-25T05:09:06.857Z,101513.58
2018-06-25T05:11:33.555Z,101508.02
2018-06-25T05:14:00.264Z,101511.50
2018-06-25T05:16:26.921Z,101516.81
2018-06-25T05:18:53.604Z,101523.08
2018-06-25T05:21:20.268Z,101527.06
2018-06-25T05:23:46.976Z,101522.24
2018-06-25T05:26:14.497Z,101522.47
2018-06-25T05:28:41.160Z,101524.05
2018-06-25T05:31:07.884Z,101527.19
2018-06-25T05:33:34.526Z,101531.53
2018-06-25T05:36:02.228Z,101539.48
2018-06-25T05:38:29.729Z,101549.87
2018-06-25T05:40:57.356Z,101549.52
2018-06-25T05:43:24.005Z,101543.11
2018-06-25T05:45:50.669Z,101537.06
2018-06-25T05:48:17.316Z,101546.12
2018-06-25T05:50:43.979Z,101543.23
2018-06-25T05:53:10.633Z,101543.95
2018-06-25T05:55:37.330Z,101542.36
2018-06-25T05:58:03.985Z,101539.84
2018-06-25T06:00:30.637Z,101530.07
2018-06-25T06:02:58.316Z,101533.47
2018-06-25T06:05:24.956Z,101532.86
2018-06-25T06:07:51.629Z,101537.80
2018-06-25T06:10:18.737Z,101534.53
2018-06-25T06:12:45.439Z,101543.82
2018-06-25T06:15:13.325Z,101545.27
2018-06-25T06:17:40.021Z,101546.56
2018-06-25T06:20:07.648Z,101543.91
2018-06-25T06:22:35.289Z,101545.37
2018-06-25T06:25:01.942Z,101548.41
2018-06-25T06:27:28.628Z,101551.65
2018-06-25T06:29:55.281Z,101547.22
2018-06-25T06:32:22.908Z,101550.80
2018-06-25T06:34:50.472Z,101550.90
2018-06-25T06:37:17.961Z,101553.45
2018-06-25T06:39:45.476Z,101559.63
2018-06-25T06:42:14.541Z,101555.78
2018-06-25T06:44:43.302Z,101554.60
2018-06-25T06:47:10.924Z,101547.96
2018-06-25T06:49:38.514Z,101550.86
2018-06-25T06:52:05.265Z,101560.04
2018-06-25T06:54:31.920Z,101555.20
2018-06-25T06:56:59.436Z,101562.45
2018-06-25T06:59:27.120Z,101557.14
2018-06-25T07:01:54.688Z,101555.56
2018-06-25T07:04:21.320Z,101549.53
2018-06-25T07:06:48.078Z,101551.81
2018-06-25T07:09:15.690Z,101552.31
2018-06-25T07:11:43.453Z,101553.75
2018-06-25T07:14:10.086Z,101551.08
2018-06-25T07:16:37.302Z,101549.04
2018-06-25T07:19:04.973Z,101542.75
2018-06-25T07:21:31.685Z,101548.55
2018-06-25T07:23:58.316Z,101545.77
2018-06-25T07:26:25.494Z,101550.72
2018-06-25T07:28:52.578Z,101541.68
2018-06-25T07:31:19.233Z,101541.42
2018-06-25T07:33:46.894Z,101548.66
2018-06-25T07:36:13.558Z,101552.53
2018-06-25T07:38:40.214Z,101551.81
2018-06-25T07:41:06.866Z,101552.03
2018-06-25T07:43:33.520Z,101556.62
2018-06-25T07:46:00.157Z,101560.13
2018-06-25T07:48:26.904Z,101573.19
2018-06-25T07:50:53.582Z,101561.34
2018-06-25T07:53:20.274Z,101562.08
2018-06-25T07:55:46.965Z,101565.33
2018-06-25T07:58:13.617Z,101572.58
2018-06-25T08:00:41.115Z,101572.94
2018-06-25T08:03:07.786Z,101572.70
2018-06-25T08:05:35.425Z,101571.47
2018-06-25T08:08:02.121Z,101572.80
2018-06-25T08:10:28.837Z,101570.41
2018-06-25T08:12:55.441Z,101575.84
2018-06-25T08:15:22.925Z,101576.30
2018-06-25T08:17:49.561Z,101574.61
2018-06-25T08:20:16.242Z,101571.84
2018-06-25T08:22:43.933Z,101574.61
2018-06-25T08:25:10.589Z,101578.02
2018-06-25T08:27:37.238Z,101582.23
2018-06-25T08:30:04.060Z,101590.06
2018-06-25T08:32:30.717Z,101595.02
2018-06-25T08:34:57.371Z,101598.64
2018-06-25T08:37:24.037Z,101601.52
2018-06-25T08:39:50.668Z,101602.98
2018-06-25T08:42:17.314Z,101600.81
2018-06-25T08:44:44.122Z,101603.47
2018-06-25T08:47:10.752Z,101614.70
2018-06-25T08:49:37.397Z,101615.91
2018-06-25T08:52:04.080Z,101615.65
2018-06-25T08:54:31.798Z,101620.11
2018-06-25T08:56:58.556Z,101614.45
2018-06-25T08:59:26.199Z,101616.13
2018-06-25T09:01:52.894Z,101617.94
2018-06-25T09:04:20.516Z,101620.59
2018-06-25T09:06:47.197Z,101630.16
2018-06-25T09:09:14.861Z,101627.02
2018-06-25T09:11:43.085Z,101630.99
2018-06-25T09:14:09.776Z,101632.20
2018-06-25T09:16:36.547Z,101631.58
2018-06-25T09:19:03.246Z,101631.70
2018-06-25T09:21:29.906Z,101634.36
2018-06-25T09:23:56.589Z,101631.70
2018-06-25T09:26:23.277Z,101635.46
2018-06-25T09:28:51.100Z,101635.46
2018-06-25T09:31:17.844Z,101634.63
2018-06-25T09:33:44.569Z,101640.88
2018-06-25T09:36:11.210Z,101642.33
2018-06-25T09:38:38.834Z,101637.86
2018-06-25T09:41:06.380Z,101637.86
2018-06-25T09:43:33.133Z,101638.70
2018-06-25T09:45:59.788Z,101640.16
2018-06-25T09:48:26.466Z,101636.89
2018-06-25T09:50:53.252Z,101646.92
2018-06-25T09:53:19.901Z,101647.98
2018-06-25T09:55:46.540Z,101650.19
2018-06-25T09:58:13.248Z,101649.22
2018-06-25T10:01:13.140Z,101650.55
2018-06-25T10:03:40.745Z,101650.05
2018-06-25T10:06:08.240Z,101640.66
2018-06-25T10:08:35.576Z,101641.98
2018-06-25T10:11:03.145Z,101643.30
2018-06-25T10:13:30.749Z,101638.70
2018-06-25T10:15:58.429Z,101636.66
2018-06-25T10:18:25.082Z,101637.37
2018-06-25T10:20:52.576Z,101640.16
2018-06-25T10:23:20.241Z,101640.03
2018-06-25T10:25:47.838Z,101643.91
2018-06-25T10:28:15.470Z,101641.98
2018-06-25T10:30:42.952Z,101636.41
2018-06-25T10:33:09.613Z,101637.73
2018-06-25T10:35:36.253Z,101643.17
2018-06-25T10:38:02.902Z,101645.95
2018-06-25T10:40:29.553Z,101642.46
2018-06-25T10:42:56.214Z,101636.89
2018-06-25T10:45:22.905Z,101639.42
2018-06-25T10:47:49.558Z,101638.97
2018-06-25T10:50:17.266Z,101644.38
2018-06-25T10:52:43.906Z,101648.13
2018-06-25T10:55:10.576Z,101649.20
2018-06-25T10:57:37.217Z,101648.48
2018-06-25T11:00:04.950Z,101646.18
2018-06-25T11:02:31.377Z,101642.07
2018-06-25T11:04:58.035Z,101635.20
2018-06-25T11:07:24.806Z,101643.05
2018-06-25T11:09:52.272Z,101638.58
2018-06-25T11:12:19.742Z,101637.73
2018-06-25T11:14:46.393Z,101633.88
2018-06-25T11:17:14.510Z,101634.50
2018-06-25T11:19:41.148Z,101628.34
2018-06-25T11:22:08.615Z,101627.86
2018-06-25T11:24:36.141Z,101633.05
2018-06-25T11:27:02.985Z,101631.59
2018-06-25T11:29:29.478Z,101629.77
2018-06-25T11:31:56.119Z,101631.59
2018-06-25T11:34:22.773Z,101629.42
2018-06-25T11:36:49.418Z,101624.95
2018-06-25T11:39:16.073Z,101628.22
2018-06-25T11:41:43.845Z,101621.94
2018-06-25T11:44:10.480Z,101632.42
2018-06-25T11:46:37.140Z,101625.69
2018-06-25T11:49:04.381Z,101614.69
2018-06-25T11:51:31.099Z,101618.80
2018-06-25T11:53:57.745Z,101612.16
2018-06-25T11:56:24.397Z,101610.22
2018-06-25T11:58:52.033Z,101612.52
2018-06-25T12:01:18.725Z,101609.03
2018-06-25T12:03:45.377Z,101603.71
2018-06-25T12:06:12.780Z,101606.85
2018-06-25T12:08:39.426Z,101605.27
2018-06-25T12:11:05.984Z,101591.54
2018-06-25T12:13:32.634Z,101590.67
2018-06-25T12:15:59.285Z,101591.89
2018-06-25T12:18:25.918Z,101588.63
2018-06-25T12:20:52.565Z,101581.64
2018-06-25T12:23:19.573Z,101583.31
2018-06-25T12:25:46.201Z,101575.13
2018-06-25T12:28:13.802Z,101579.95
2018-06-25T12:30:40.446Z,101575.48
2018-06-25T12:33:07.165Z,101577.30
2018-06-25T12:35:33.885Z,101569.20
2018-06-25T12:38:00.573Z,101571.63
2018-06-25T12:40:27.217Z,101574.16
2018-06-25T12:42:53.857Z,101573.67
2018-06-25T12:45:20.493Z,101567.03
2018-06-25T12:47:47.148Z,101575.25
2018-06-25T12:50:13.834Z,101572.95
2018-06-25T12:52:42.082Z,101569.69
2018-06-25T12:55:09.689Z,101566.77
2018-06-25T12:57:37.357Z,101567.88
2018-06-25T13:00:04.001Z,101572.34
2018-06-25T13:02:30.649Z,101564.51
2018-06-25T13:04:57.585Z,101559.77
2018-06-25T13:07:25.294Z,101566.55
2018-06-25T13:09:52.453Z,101565.34
2018-06-25T13:12:19.089Z,101560.88
2018-06-25T13:14:45.765Z,101558.58
2018-06-25T13:17:13.333Z,101551.10
2018-06-25T13:19:40.033Z,101554.24
2018-06-25T13:22:07.573Z,101554.59
2018-06-25T13:24:34.272Z,101552.43
2018-06-25T13:27:00.959Z,101552.56
2018-06-25T13:29:27.597Z,101550.14
2018-06-25T13:31:55.286Z,101545.09
2018-06-25T13:34:22.914Z,101551.72
2018-06-25T13:36:49.571Z,101544.95
2018-06-25T13:39:17.221Z,101543.27
2018-06-25T13:41:44.814Z,101552.78
2018-06-25T13:44:12.459Z,101546.63
2018-06-25T13:46:39.136Z,101548.80
2018-06-25T13:49:05.788Z,101543.39
2018-06-25T13:51:32.464Z,101535.66
2018-06-25T13:54:00.016Z,101547.12
2018-06-25T13:56:26.661Z,101547.61
2018-06-25T13:58:53.321Z,101547.96
2018-06-25T14:01:20.085Z,101551.95
2018-06-25T14:03:46.756Z,101550.62
2018-06-25T14:06:13.410Z,101550.27
2018-06-25T14:08:40.078Z,101550.27
2018-06-25T14:11:07.549Z,101554.24
2018-06-25T14:13:35.125Z,101554.24
2018-06-25T14:16:01.776Z,101555.22
2018-06-25T14:18:29.442Z,101552.78
2018-06-25T14:20:57.081Z,101556.66
2018-06-25T14:23:24.728Z,101557.73
2018-06-25T14:25:58.020Z,101549.16
2018-06-25T14:28:30.558Z,101551.23
2018-06-25T14:31:02.975Z,101540.23
2018-06-25T14:33:36.151Z,101545.19
2018-06-25T14:36:02.809Z,101538.33
2018-06-25T14:38:30.289Z,101544.34
2018-06-25T14:40:57.821Z,101534.69
2018-06-25T14:43:25.466Z,101538.80
2018-06-25T14:45:52.893Z,101543.76
2018-06-25T14:48:19.688Z,101543.27
2018-06-25T14:50:46.321Z,101547.96
2018-06-25T14:53:13.546Z,101543.49
2018-06-25T14:55:41.147Z,101544.11
2018-06-25T14:58:07.881Z,101549.06
2018-06-25T15:00:34.542Z,101544.70
2018-06-25T15:03:01.205Z,101547.96
2018-06-25T15:05:27.857Z,101528.30
2018-06-25T15:07:54.494Z,101533.97
2018-06-25T15:10:21.180Z,101530.20
2018-06-25T15:12:47.824Z,101531.65
2018-06-25T15:15:14.502Z,101526.80
2018-06-25T15:17:41.145Z,101523.83
2018-06-25T15:20:08.864Z,101531.17
2018-06-25T15:22:36.358Z,101518.39
2018-06-25T15:25:03.984Z,101517.08
2018-06-25T15:27:30.630Z,101515.52
2018-06-25T15:29:57.297Z,101519.01
2018-06-25T15:32:27.269Z,101519.01
2018-06-25T15:34:53.917Z,101515.75
2018-06-25T15:37:21.518Z,101513.45
2018-06-25T15:39:49.101Z,101507.66
2018-06-25T15:42:15.746Z,101504.39
2018-06-25T15:44:43.881Z,101499.83
2018-06-25T15:47:10.525Z,101498.84
2018-06-25T15:49:37.181Z,101498.98
2018-06-25T15:52:03.844Z,101494.52
2018-06-25T15:54:30.537Z,101491.37
2018-06-25T15:56:57.183Z,101486.06
2018-06-25T15:59:24.017Z,101491.99
2018-06-25T16:01:50.674Z,101493.19
2018-06-25T16:04:17.367Z,101487.74
2018-06-25T16:06:44.163Z,101482.22
2018-06-25T16:09:10.809Z,101481.37
2018-06-25T16:11:37.473Z,101481.83
2018-06-25T16:14:04.585Z,101487.14
2018-06-25T16:16:32.185Z,101484.37
2018-06-25T16:18:58.896Z,101489.58
2018-06-25T16:21:25.537Z,101488.97
2018-06-25T16:23:52.189Z,101492.45
2018-06-25T16:26:18.853Z,101498.61
2018-06-25T16:28:45.557Z,101497.54
2018-06-25T16:31:13.258Z,101495.47
2018-06-25T16:33:39.901Z,101498.27
2018-06-25T16:36:06.606Z,101506.58
2018-06-25T16:38:33.256Z,101502.59
2018-06-25T16:40:59.896Z,101509.85
2018-06-25T16:43:26.536Z,101517.19
2018-06-25T16:45:53.197Z,101518.41
2018-06-25T16:48:19.855Z,101513.83
2018-06-25T16:50:46.530Z,101513.83
2018-06-25T16:53:13.951Z,101514.80
2018-06-25T16:55:40.597Z,101514.42
2018-06-25T16:58:07.312Z,101509.36
2018-06-25T17:00:33.991Z,101509.11
2018-06-25T17:03:00.809Z,101509.85
2018-06-25T17:05:27.521Z,101505.03
2018-06-25T17:07:54.176Z,101509.95
2018-06-25T17:10:20.816Z,101498.01
2018-06-25T17:12:47.466Z,101504.30
2018-06-25T17:15:14.117Z,101505.52
2018-06-25T17:17:40.776Z,101499.60
2018-06-25T17:20:07.445Z,101498.28
2018-06-25T17:22:34.144Z,101507.55
2018-06-25T17:25:01.471Z,101504.55
2018-06-25T17:27:29.140Z,101499.60
2018-06-25T17:29:55.793Z,101500.66
2018-06-25T17:32:22.564Z,101502.25
2018-06-25T17:34:50.175Z,101506.83
2018-06-25T17:37:17.744Z,101511.55
2018-06-25T17:39:44.397Z,101515.53
2018-06-25T17:42:11.038Z,101514.43
2018-06-25T17:44:37.701Z,101514.43
2018-06-25T17:47:04.384Z,101521.91
2018-06-25T17:49:31.072Z,101523.71
2018-06-25T17:51:58.532Z,101527.81
2018-06-25T17:54:26.042Z,101528.13
2018-06-25T17:56:53.537Z,101532.25
2018-06-25T17:59:20.291Z,101527.12
2018-06-25T18:01:47.884Z,101524.72
2018-06-25T18:04:15.550Z,101524.94
2018-06-25T18:06:43.144Z,101529.17
2018-06-25T18:09:13.361Z,101528.80
2018-06-25T18:11:40.058Z,101535.30
2018-06-25T18:14:06.700Z,101537.50
2018-06-25T18:16:33.381Z,101539.77
2018-06-25T18:19:00.046Z,101541.34
2018-06-25T18:21:26.688Z,101537.36
2018-06-25T18:23:53.445Z,101538.58
2018-06-25T18:26:20.167Z,101536.16
2018-06-25T18:28:46.797Z,101538.70
2018-06-25T18:31:14.509Z,101547.30
2018-06-25T18:33:41.277Z,101550.44
2018-06-25T18:36:08.268Z,101547.78
2018-06-25T18:38:34.917Z,101551.64
2018-06-25T18:41:01.592Z,101551.20
2018-06-25T18:43:28.487Z,101556.24
2018-06-25T18:45:55.152Z,101558.80
2018-06-25T18:48:22.155Z,101558.16
2018-06-25T18:50:48.842Z,101565.31
2018-06-25T18:53:15.579Z,101567.97
2018-06-25T18:55:43.320Z,101567.48
2018-06-25T18:58:10.155Z,101572.44
2018-06-25T19:00:36.940Z,101580.89
2018-06-25T19:03:03.789Z,101578.83
2018-06-25T19:05:30.450Z,101579.91
2018-06-25T19:07:58.271Z,101589.70
2018-06-25T19:10:24.909Z,101591.27
2018-06-25T19:12:51.545Z,101602.12
2018-06-25T19:15:18.220Z,101608.76
2018-06-25T19:17:44.882Z,101612.73
2018-06-25T19:20:12.557Z,101607.34
2018-06-25T19:22:39.249Z,101608.67
2018-06-25T19:25:06.006Z,101606.95
2018-06-25T19:27:32.676Z,101619.87
2018-06-25T19:29:59.329Z,101615.77
2018-06-25T19:32:26.002Z,101623.02
2018-06-25T19:34:52.657Z,101621.69
2018-06-25T19:37:19.325Z,101627.97
2018-06-25T19:39:45.964Z,101630.73
2018-06-25T19:42:13.715Z,101634.00
2018-06-25T19:44:41.280Z,101637.98
2018-06-25T19:47:07.945Z,101635.08
2018-06-25T19:49:34.598Z,101633.64
2018-06-25T19:52:01.237Z,101639.55
2018-06-25T19:54:28.832Z,101631.84
2018-06-25T19:56:55.578Z,101639.32
2018-06-25T19:59:22.407Z,101641.98
2018-06-25T20:01:49.064Z,101638.61
2018-06-25T20:04:15.780Z,101641.84
2018-06-25T20:06:43.539Z,101637.37
2018-06-25T20:09:12.765Z,101642.69
2018-06-25T20:11:39.923Z,101638.22
2018-06-25T20:14:06.585Z,101643.53
2018-06-25T20:16:33.310Z,101644.02
2018-06-25T20:18:59.961Z,101651.50
2018-06-25T20:21:26.630Z,101651.14
2018-06-25T20:23:53.297Z,101651.14
2018-06-25T20:26:19.965Z,101655.25
2018-06-25T20:28:46.615Z,101654.73
2018-06-25T20:31:19.385Z,101661.50
2018-06-25T20:33:46.026Z,101666.09
2018-06-25T20:36:13.547Z,101664.90
2018-06-25T20:38:40.240Z,101664.41
2018-06-25T20:41:07.036Z,101663.22
2018-06-25T20:43:33.692Z,101665.26
2018-06-25T20:46:00.358Z,101664.64
2018-06-25T20:48:27.961Z,101670.89
2018-06-25T20:50:54.654Z,101675.00
2018-06-25T20:53:22.149Z,101676.33
2018-06-25T20:55:48.825Z,101683.70
2018-06-25T20:58:15.492Z,101679.83
2018-06-25T21:00:44.421Z,101683.80
2018-06-25T21:03:13.563Z,101679.47
2018-06-25T21:05:40.230Z,101682.73
2018-06-25T21:08:06.974Z,101685.73
2018-06-25T21:10:34.485Z,101688.27
2018-06-25T21:13:01.190Z,101676.55
2018-06-25T21:15:27.856Z,101681.86
2018-06-25T21:17:54.578Z,101687.06
2018-06-25T21:20:21.278Z,101681.34
2018-06-25T21:22:47.954Z,101687.26
2018-06-25T21:25:14.678Z,101690.27
2018-06-25T21:27:42.338Z,101688.14
2018-06-25T21:30:09.119Z,101685.80
2018-06-25T21:32:35.854Z,101684.16
2018-06-25T21:35:02.545Z,101685.45
2018-06-25T21:37:29.228Z,101685.17
2018-06-25T21:39:55.896Z,101695.44
2018-06-25T21:42:22.580Z,101692.64
2018-06-25T21:44:49.249Z,101696.50
2018-06-25T21:47:15.968Z,101697.81
2018-06-25T21:49:43.761Z,101694.59
2018-06-25T21:52:10.433Z,101696.41
2018-06-25T21:54:38.072Z,101688.67
2018-06-25T21:57:04.886Z,101700.61
2018-06-25T21:59:32.679Z,101701.11
2018-06-25T22:01:59.321Z,101695.92
2018-06-25T22:04:27.025Z,101701.94
2018-06-25T22:06:53.715Z,101702.56
2018-06-25T22:09:21.253Z,101701.70
2018-06-25T22:11:49.825Z,101696.62
2018-06-25T22:14:16.535Z,101700.02
2018-06-25T22:16:44.265Z,101697.86
2018-06-25T22:19:11.076Z,101709.32
2018-06-25T22:21:37.748Z,101705.34
2018-06-25T22:24:04.854Z,101705.20
2018-06-25T22:26:31.516Z,101696.89
2018-06-25T22:28:58.345Z,101709.77
2018-06-25T22:31:25.312Z,101711.83
2018-06-25T22:33:52.787Z,101713.64
2018-06-25T22:36:19.465Z,101712.54
2018-06-25T22:38:46.148Z,101715.18
2018-06-25T22:41:13.447Z,101714.08
2018-06-25T22:43:40.277Z,101708.35
2018-06-25T22:46:06.946Z,101705.55
2018-06-25T22:48:33.612Z,101701.78
2018-06-25T22:51:00.338Z,101704.80
2018-06-25T22:53:27.000Z,101706.60
2018-06-25T22:55:53.660Z,101701.21
2018-06-25T22:58:20.313Z,101710.11
2018-06-25T23:00:47.007Z,101707.09
2018-06-25T23:03:19.322Z,101704.51
2018-06-25T23:05:45.981Z,101709.17
2018-06-25T23:08:13.787Z,101715.18
2018-06-25T23:10:40.496Z,101719.03
2018-06-25T23:13:07.264Z,101724.36
2018-06-25T23:15:34.909Z,101713.64
2018-06-25T23:18:02.654Z,101717.01
2018-06-25T23:20:30.220Z,101723.64
2018-06-25T23:22:57.692Z,101721.67
2018-06-25T23:25:24.816Z,101718.05
2018-06-25T23:27:51.828Z,101714.08
2018-06-25T23:30:19.988Z,101715.77
2018-06-25T23:32:47.609Z,101719.85
2018-06-25T23:35:15.419Z,101719.74
2018-06-25T23:37:44.385Z,101716.64
2018-06-25T23:40:12.772Z,101720.95
2018-06-25T23:42:39.720Z,101722.78
2018-06-25T23:45:06.670Z,101721.81
2018-06-25T23:47:36.516Z,101729.78
2018-06-25T23:50:03.203Z,101739.30
2018-06-25T23:52:29.953Z,101734.86
2018-06-25T23:54:56.648Z,101733.78
2018-06-25T23:57:23.349Z,101734.95
2018-06-25T23:59:51.097Z,101733.25
